Terminal Aerodrome Forecast
Issued by NWS

Home | Current Version | Previous Version | Text Only | Print | Product List | Glossary On
Versions: 1 2 3 4 5 6 7 8 9 10 11 12 13 14 15 16 17 18 19 20 21 22 23 24 25 26 27 28 29 30 31 32 33 34 35 36 37 38 39 40 41 42
000
FTUS41 KRNK 292323
TAFBCB
TAF
KBCB 292323Z 3000/3024 10007KT P6SM BKN035
     FM300200 00000KT 6SM BR SCT020 BKN030
     FM300700 00000KT 3SM BR SCT005 OVC018
     FM301300 VRB03KT 5SM BR BKN025
     FM301500 13004KT P6SM SCT025 BKN040
     FM301800 16005KT P6SM SCT045=

USA.gov is the U.S. government's official web portal to all federal, state and local government web resources and services.